Time;durP1;ratioP1;P1;durP2;ratioP2;P2;SDS_P1;SDS_P2;PMS_P1;PMS_P2;Temp;Humidity;BMP_temperature;BMP_pressure;BME280_temperature;BME280_humidity;BME280_pressure;Samples;Min_cycle;Max_cycle;Signal;HPM_P1;HPM_P2
2022/10/31 00:01:57;;;;;;;15.27;7.97;;;;;;;;;;5092244;28;20438;-56
2022/10/31 00:04:23;;;;;;;13.23;6.93;;;;;;;;;;5092814;28;20044;-56
2022/10/31 00:06:50;;;;;;;16.50;7.97;;;;;;;;;;5092600;28;20753;-55
2022/10/31 00:09:21;;;;;;;17.33;7.30;;;;;;;;;;5092583;28;20048;-55
2022/10/31 00:11:50;;;;;;;13.48;7.50;;;;;;;;;;5092231;28;20354;-56
2022/10/31 00:14:20;;;;;;;14.07;8.00;;;;;;;;;;5086728;28;20063;-56
2022/10/31 00:16:50;;;;;;;16.38;9.23;;;;;;;;;;5092408;28;20048;-56
2022/10/31 00:19:18;;;;;;;15.20;7.97;;;;;;;;;;5092462;28;20059;-55
2022/10/31 00:21:46;;;;;;;14.60;6.90;;;;;;;;;;5092349;28;20044;-55
2022/10/31 00:24:15;;;;;;;14.32;7.30;;;;;;;;;;5092019;28;20404;-55
2022/10/31 00:26:44;;;;;;;10.40;5.95;;;;;;;;;;5089953;28;20362;-54
2022/10/31 00:29:13;;;;;;;11.48;6.90;;;;;;;;;;5086100;28;20092;-55
2022/10/31 00:31:46;;;;;;;17.70;7.70;;;;;;;;;;5091908;28;20407;-53
2022/10/31 00:34:16;;;;;;;13.52;6.80;;;;;;;;;;5092440;28;20052;-55
2022/10/31 00:36:45;;;;;;;16.00;8.82;;;;;;;;;;5090277;28;20581;-55
2022/10/31 00:39:15;;;;;;;11.93;6.85;;;;;;;;;;5092443;28;20052;-55
2022/10/31 00:41:44;;;;;;;15.25;6.88;;;;;;;;;;5092459;28;20461;-55
2022/10/31 00:44:14;;;;;;;9.98;5.53;;;;;;;;;;5091902;28;20056;-52
2022/10/31 00:46:48;;;;;;;11.35;6.28;;;;;;;;;;5091471;28;20052;-55
2022/10/31 00:49:18;;;;;;;11.32;6.80;;;;;;;;;;5092358;28;20047;-52
2022/10/31 00:51:46;;;;;;;10.70;6.07;;;;;;;;;;5091825;28;20603;-55
2022/10/31 00:54:16;;;;;;;11.98;5.80;;;;;;;;;;5081333;28;20052;-55
2022/10/31 00:56:43;;;;;;;10.23;5.85;;;;;;;;;;5092263;28;20463;-52
2022/10/31 00:59:13;;;;;;;12.07;6.07;;;;;;;;;;5094533;28;20063;-55
2022/10/31 01:01:54;;;;;;;11.45;6.28;;;;;;;;;;5095734;28;20450;-55
2022/10/31 01:04:24;;;;;;;11.88;6.28;;;;;;;;;;5090590;28;20044;-55
2022/10/31 01:06:54;;;;;;;11.68;6.07;;;;;;;;;;5095214;28;20473;-53
2022/10/31 01:09:23;;;;;;;12.85;6.60;;;;;;;;;;5095149;28;20146;-53
2022/10/31 01:11:53;;;;;;;10.70;5.18;;;;;;;;;;5095846;28;20044;-55
2022/10/31 01:14:23;;;;;;;10.75;6.40;;;;;;;;;;5095304;28;20048;-52
2022/10/31 01:17:02;;;;;;;11.52;5.65;;;;;;;;;;5095613;28;20453;-55
2022/10/31 01:19:32;;;;;;;12.45;5.88;;;;;;;;;;5095035;28;20044;-53
2022/10/31 01:22:02;;;;;;;16.20;6.88;;;;;;;;;;5095152;28;20047;-54
2022/10/31 01:24:32;;;;;;;15.63;6.57;;;;;;;;;;5095725;28;20052;-55
2022/10/31 01:27:00;;;;;;;23.15;8.63;;;;;;;;;;5092073;28;20052;-55
2022/10/31 01:29:27;;;;;;;21.60;9.05;;;;;;;;;;5085534;28;20048;-55
2022/10/31 01:32:09;;;;;;;19.08;8.05;;;;;;;;;;5095350;28;20051;-55
2022/10/31 01:34:42;;;;;;;15.35;7.68;;;;;;;;;;5095521;28;20044;-55
2022/10/31 01:37:09;;;;;;;15.50;8.02;;;;;;;;;;5094668;28;20052;-54
2022/10/31 01:39:38;;;;;;;15.30;7.30;;;;;;;;;;5092701;28;20453;-55
2022/10/31 01:42:08;;;;;;;22.85;9.20;;;;;;;;;;5090561;28;20067;-56
2022/10/31 01:44:57;;;;;;;24.80;8.85;;;;;;;;;;5095103;28;20067;-55
2022/10/31 01:47:57;;;;;;;23.92;10.75;;;;;;;;;;5086998;28;20392;-55
2022/10/31 01:50:29;;;;;;;25.35;9.55;;;;;;;;;;5093490;28;20056;-55
2022/10/31 01:52:58;;;;;;;24.38;9.38;;;;;;;;;;5094893;28;20120;-55
2022/10/31 01:55:34;;;;;;;15.18;8.13;;;;;;;;;;5086874;28;20126;-56
2022/10/31 01:58:03;;;;;;;16.70;7.88;;;;;;;;;;5095155;28;20056;-56
2022/10/31 02:00:31;;;;;;;16.23;7.95;;;;;;;;;;5094728;28;20094;-55
2022/10/31 02:03:13;;;;;;;23.73;9.40;;;;;;;;;;5094184;28;20056;-54
2022/10/31 02:05:45;;;;;;;18.45;7.72;;;;;;;;;;5094124;28;20055;-55
2022/10/31 02:08:17;;;;;;;17.13;8.07;;;;;;;;;;5092805;28;20048;-56
2022/10/31 02:10:45;;;;;;;19.88;8.18;;;;;;;;;;5094146;28;20425;-54
2022/10/31 02:13:14;;;;;;;17.20;7.32;;;;;;;;;;5094663;28;20044;-54
2022/10/31 02:15:45;;;;;;;18.17;7.60;;;;;;;;;;5081845;28;20044;-55
2022/10/31 02:18:15;;;;;;;16.15;7.90;;;;;;;;;;5094757;28;20055;-55
2022/10/31 02:20:49;;;;;;;15.75;7.28;;;;;;;;;;5094469;28;20047;-55
2022/10/31 02:23:46;;;;;;;21.48;7.38;;;;;;;;;;5094478;28;20053;-54
2022/10/31 02:26:35;;;;;;;19.02;7.40;;;;;;;;;;5094489;28;20052;-54
2022/10/31 02:29:36;;;;;;;19.48;7.78;;;;;;;;;;5088991;28;20056;-53
2022/10/31 02:32:23;;;;;;;20.85;10.35;;;;;;;;;;5084290;28;20071;-54
2022/10/31 02:34:54;;;;;;;17.65;8.75;;;;;;;;;;5094219;28;20044;-55
2022/10/31 02:37:25;;;;;;;12.20;6.53;;;;;;;;;;5094295;28;20064;-55
2022/10/31 02:40:00;;;;;;;17.90;9.68;;;;;;;;;;5093336;28;20086;-54
2022/10/31 02:42:40;;;;;;;19.50;8.43;;;;;;;;;;5093871;28;20044;-55
2022/10/31 02:45:12;;;;;;;23.02;12.20;;;;;;;;;;5094156;28;20048;-54
2022/10/31 02:47:54;;;;;;;16.33;10.48;;;;;;;;;;5093510;28;20059;-55
2022/10/31 02:50:25;;;;;;;19.73;10.50;;;;;;;;;;5093888;28;20048;-56
2022/10/31 02:52:55;;;;;;;17.55;9.57;;;;;;;;;;5087349;28;20369;-55
2022/10/31 02:55:51;;;;;;;16.30;9.75;;;;;;;;;;5093744;28;20143;-54
2022/10/31 02:58:20;;;;;;;20.58;10.23;;;;;;;;;;5087287;28;20163;-55
2022/10/31 03:00:52;;;;;;;21.10;9.63;;;;;;;;;;5093162;28;20354;-55
2022/10/31 03:03:24;;;;;;;22.25;10.98;;;;;;;;;;5093304;28;20051;-54
2022/10/31 03:05:55;;;;;;;21.52;10.35;;;;;;;;;;5083089;28;20048;-53
2022/10/31 03:08:25;;;;;;;23.15;9.45;;;;;;;;;;5093526;28;20097;-55
2022/10/31 03:10:54;;;;;;;19.33;9.10;;;;;;;;;;5093786;28;20456;-55
2022/10/31 03:13:37;;;;;;;21.15;10.35;;;;;;;;;;5093571;28;20137;-54
2022/10/31 03:16:10;;;;;;;22.88;10.25;;;;;;;;;;5093918;28;20055;-54
2022/10/31 03:18:50;;;;;;;19.63;10.35;;;;;;;;;;5080931;28;20052;-53
2022/10/31 03:21:24;;;;;;;23.90;10.65;;;;;;;;;;5093125;28;20150;-54
2022/10/31 03:23:51;;;;;;;21.52;10.57;;;;;;;;;;5092940;28;20051;-54
2022/10/31 03:26:20;;;;;;;18.63;9.25;;;;;;;;;;5090113;28;20048;-55
2022/10/31 03:28:51;;;;;;;28.13;11.05;;;;;;;;;;5093681;28;20048;-54
2022/10/31 03:31:22;;;;;;;35.70;12.73;;;;;;;;;;5093333;28;20441;-54
2022/10/31 03:33:53;;;;;;;29.23;11.85;;;;;;;;;;5093633;28;20117;-54
2022/10/31 03:36:21;;;;;;;30.77;11.20;;;;;;;;;;5092838;28;20048;-51
2022/10/31 03:38:51;;;;;;;30.13;11.98;;;;;;;;;;5093063;28;20044;-53
2022/10/31 03:41:27;;;;;;;32.97;12.50;;;;;;;;;;5081416;28;20350;-52
2022/10/31 03:44:05;;;;;;;26.88;11.60;;;;;;;;;;5092650;28;20093;-54
2022/10/31 03:46:33;;;;;;;32.35;11.82;;;;;;;;;;5090931;28;20151;-51
2022/10/31 03:49:01;;;;;;;28.42;11.48;;;;;;;;;;5092850;28;20052;-54
2022/10/31 03:51:33;;;;;;;34.38;12.10;;;;;;;;;;5092963;28;20052;-54
2022/10/31 03:54:04;;;;;;;30.40;11.80;;;;;;;;;;5092884;28;20048;-52
2022/10/31 03:56:37;;;;;;;27.60;10.85;;;;;;;;;;5092916;28;20052;-51
2022/10/31 03:59:14;;;;;;;25.90;10.43;;;;;;;;;;5092551;28;20051;-51
2022/10/31 04:01:41;;;;;;;45.70;14.85;;;;;;;;;;5092918;28;20056;-52
2022/10/31 04:04:14;;;;;;;35.22;15.65;;;;;;;;;;5092679;28;20052;-51
2022/10/31 04:06:42;;;;;;;29.75;11.82;;;;;;;;;;5092423;28;20461;-53
2022/10/31 04:09:11;;;;;;;29.25;11.43;;;;;;;;;;5092614;28;20463;-52
2022/10/31 04:11:44;;;;;;;25.85;11.48;;;;;;;;;;5087614;28;20051;-52
2022/10/31 04:14:14;;;;;;;31.45;13.00;;;;;;;;;;5092553;28;20135;-55
2022/10/31 04:16:44;;;;;;;28.05;13.02;;;;;;;;;;5092549;28;20483;-52
2022/10/31 04:19:17;;;;;;;72.32;20.20;;;;;;;;;;5092888;28;20055;-52
2022/10/31 04:21:44;;;;;;;32.50;12.38;;;;;;;;;;5092010;28;20090;-52
2022/10/31 04:24:10;;;;;;;26.25;12.00;;;;;;;;;;5092230;28;20079;-54
2022/10/31 04:26:40;;;;;;;22.95;11.02;;;;;;;;;;5092066;28;20464;-53
2022/10/31 04:29:17;;;;;;;22.73;11.88;;;;;;;;;;5092171;28;20048;-53
2022/10/31 04:31:47;;;;;;;24.77;11.80;;;;;;;;;;5081654;28;20036;-55
2022/10/31 04:34:26;;;;;;;19.85;10.02;;;;;;;;;;5094722;28;20044;-54
2022/10/31 04:36:54;;;;;;;21.40;10.98;;;;;;;;;;5096905;28;20138;-55
2022/10/31 04:42:00;;;;;;;18.92;9.85;;;;;;;;;;5096535;28;20044;-54
2022/10/31 04:44:28;;;;;;;17.55;8.77;;;;;;;;;;5096297;28;20052;-54
2022/10/31 04:46:55;;;;;;;19.55;9.60;;;;;;;;;;5096702;28;20058;-54
2022/10/31 04:49:25;;;;;;;23.73;11.05;;;;;;;;;;5096508;28;20055;-54
2022/10/31 04:51:55;;;;;;;28.25;11.52;;;;;;;;;;5096579;28;20075;-52
2022/10/31 04:54:25;;;;;;;30.27;13.63;;;;;;;;;;5095946;28;20048;-55
2022/10/31 04:56:55;;;;;;;28.27;13.43;;;;;;;;;;5096487;28;20360;-52
2022/10/31 04:59:23;;;;;;;34.72;13.80;;;;;;;;;;5077786;28;20437;-52
2022/10/31 05:01:53;;;;;;;31.73;13.25;;;;;;;;;;5088951;28;20083;-54
2022/10/31 05:04:20;;;;;;;29.08;12.45;;;;;;;;;;5096489;28;20090;-55
2022/10/31 05:06:58;;;;;;;35.80;13.27;;;;;;;;;;5096472;28;20039;-55
2022/10/31 05:09:28;;;;;;;30.92;12.43;;;;;;;;;;5096136;28;20052;-54
2022/10/31 05:11:56;;;;;;;38.35;13.23;;;;;;;;;;5095936;28;20044;-53
2022/10/31 05:14:26;;;;;;;31.10;13.23;;;;;;;;;;5096018;28;20461;-51
2022/10/31 05:16:56;;;;;;;28.60;12.68;;;;;;;;;;5095994;28;20083;-53
2022/10/31 05:19:25;;;;;;;33.40;13.82;;;;;;;;;;5096051;28;20056;-54
2022/10/31 05:21:55;;;;;;;29.88;15.23;;;;;;;;;;5085517;28;20048;-52
2022/10/31 05:24:22;;;;;;;34.35;16.48;;;;;;;;;;5095774;28;20143;-53
2022/10/31 05:26:51;;;;;;;31.40;14.93;;;;;;;;;;5083105;28;20044;-53
2022/10/31 05:29:18;;;;;;;38.17;15.68;;;;;;;;;;5089887;28;20048;-55
2022/10/31 05:31:49;;;;;;;46.53;17.88;;;;;;;;;;5095879;28;20048;-55
2022/10/31 05:34:18;;;;;;;41.22;14.85;;;;;;;;;;5094973;28;20059;-54
2022/10/31 05:36:46;;;;;;;53.85;17.25;;;;;;;;;;5095283;28;20060;-55
2022/10/31 05:39:33;;;;;;;46.90;17.02;;;;;;;;;;5094940;28;20048;-51
2022/10/31 05:42:03;;;;;;;46.53;16.45;;;;;;;;;;5094999;28;20044;-53
2022/10/31 05:44:42;;;;;;;38.13;14.82;;;;;;;;;;5094601;28;20051;-55
2022/10/31 05:47:08;;;;;;;45.83;16.52;;;;;;;;;;5095461;28;20143;-53
2022/10/31 05:49:39;;;;;;;38.88;15.85;;;;;;;;;;5094943;28;20067;-53
2022/10/31 05:52:06;;;;;;;39.50;15.98;;;;;;;;;;5095896;28;20059;-53
2022/10/31 05:54:41;;;;;;;37.40;14.07;;;;;;;;;;5093673;28;20052;-52
2022/10/31 05:57:11;;;;;;;36.80;15.80;;;;;;;;;;5090708;28;20091;-55
2022/10/31 05:59:40;;;;;;;32.28;12.60;;;;;;;;;;5095354;28;20047;-55
2022/10/31 06:02:09;;;;;;;41.50;16.90;;;;;;;;;;5094969;28;20406;-54
2022/10/31 06:04:39;;;;;;;35.20;15.30;;;;;;;;;;5095114;28;20432;-54
2022/10/31 06:07:07;;;;;;;40.97;14.43;;;;;;;;;;5094798;28;20060;-52
2022/10/31 06:09:35;;;;;;;34.72;14.02;;;;;;;;;;5094513;28;20052;-55
2022/10/31 06:12:05;;;;;;;31.63;13.18;;;;;;;;;;5094240;28;20109;-56
2022/10/31 06:14:32;;;;;;;36.97;14.10;;;;;;;;;;5092737;28;20048;-52
2022/10/31 06:17:00;;;;;;;29.58;13.10;;;;;;;;;;5081622;28;20044;-55
2022/10/31 06:19:29;;;;;;;36.35;15.65;;;;;;;;;;5094375;28;20051;-55
2022/10/31 06:21:59;;;;;;;34.90;13.70;;;;;;;;;;5094697;28;20472;-55
2022/10/31 06:24:26;;;;;;;29.70;11.95;;;;;;;;;;5093670;28;20059;-54
2022/10/31 06:27:08;;;;;;;31.75;12.85;;;;;;;;;;5094670;28;20059;-52
2022/10/31 06:29:36;;;;;;;31.23;12.45;;;;;;;;;;5095151;28;20048;-52
2022/10/31 06:32:06;;;;;;;29.10;11.23;;;;;;;;;;5094992;28;20052;-53
2022/10/31 06:37:15;;;;;;;32.45;12.98;;;;;;;;;;5089258;28;20052;-51
2022/10/31 06:39:42;;;;;;;23.02;10.88;;;;;;;;;;5093678;28;20055;-51
2022/10/31 06:42:20;;;;;;;26.58;10.48;;;;;;;;;;5092403;28;20051;-52
2022/10/31 06:44:49;;;;;;;29.45;12.18;;;;;;;;;;5084145;28;20099;-52
2022/10/31 06:47:19;;;;;;;33.10;12.55;;;;;;;;;;5094384;28;20052;-52
2022/10/31 06:49:46;;;;;;;29.45;12.13;;;;;;;;;;5088908;28;20059;-55
2022/10/31 06:52:14;;;;;;;34.53;13.75;;;;;;;;;;5094133;28;20044;-55
2022/10/31 06:54:42;;;;;;;29.00;14.02;;;;;;;;;;5093977;28;20469;-55
2022/10/31 06:57:19;;;;;;;35.47;15.05;;;;;;;;;;5081935;28;20068;-55
2022/10/31 06:59:48;;;;;;;29.17;13.90;;;;;;;;;;5093266;28;20346;-56
2022/10/31 07:02:17;;;;;;;28.17;12.20;;;;;;;;;;5092317;28;20048;-55
2022/10/31 07:04:47;;;;;;;31.40;13.20;;;;;;;;;;5093882;28;20048;-55
2022/10/31 07:07:16;;;;;;;28.05;12.68;;;;;;;;;;5093713;28;20080;-53
2022/10/31 07:09:44;;;;;;;21.90;10.80;;;;;;;;;;5093628;28;20052;-55
2022/10/31 07:12:24;;;;;;;24.90;10.75;;;;;;;;;;5093209;28;20059;-55
2022/10/31 07:14:53;;;;;;;22.13;9.38;;;;;;;;;;5081832;28;20629;-54
2022/10/31 07:17:25;;;;;;;29.92;13.77;;;;;;;;;;5090874;28;20055;-54
2022/10/31 07:19:53;;;;;;;24.90;11.85;;;;;;;;;;5083967;28;20075;-54
2022/10/31 07:22:21;;;;;;;31.73;13.35;;;;;;;;;;5079439;28;20048;-55
2022/10/31 07:24:51;;;;;;;29.25;13.05;;;;;;;;;;5087994;28;20048;-51
2022/10/31 07:27:23;;;;;;;27.25;13.35;;;;;;;;;;5091726;28;20087;-55
2022/10/31 07:29:53;;;;;;;33.58;14.77;;;;;;;;;;5093177;28;20043;-55
2022/10/31 07:32:20;;;;;;;30.60;14.38;;;;;;;;;;5092610;28;20628;-54
2022/10/31 07:34:47;;;;;;;30.67;14.00;;;;;;;;;;5085777;28;20052;-51
2022/10/31 07:37:14;;;;;;;27.70;12.60;;;;;;;;;;5091011;28;20056;-54
2022/10/31 07:39:44;;;;;;;27.65;12.48;;;;;;;;;;5092705;28;20059;-54
2022/10/31 07:42:14;;;;;;;28.80;14.18;;;;;;;;;;5092496;28;20052;-48
2022/10/31 07:44:46;;;;;;;36.25;14.13;;;;;;;;;;5091575;28;20056;-51
2022/10/31 07:47:16;;;;;;;25.88;12.65;;;;;;;;;;5087576;28;20135;-52
2022/10/31 07:49:45;;;;;;;22.25;10.85;;;;;;;;;;5092346;28;20079;-54
2022/10/31 07:52:12;;;;;;;24.95;11.15;;;;;;;;;;5093011;28;20067;-52
2022/10/31 07:54:41;;;;;;;27.05;12.82;;;;;;;;;;5092779;28;20101;-52
2022/10/31 07:57:09;;;;;;;31.00;13.98;;;;;;;;;;5083243;28;20055;-54
2022/10/31 07:59:37;;;;;;;28.27;12.85;;;;;;;;;;5086818;28;20469;-54
2022/10/31 08:02:21;;;;;;;31.25;13.73;;;;;;;;;;5088708;28;20140;-54
2022/10/31 08:04:51;;;;;;;29.20;12.85;;;;;;;;;;5093556;28;20051;-52
2022/10/31 08:07:21;;;;;;;33.80;16.45;;;;;;;;;;5092462;28;20048;-52
2022/10/31 08:09:49;;;;;;;34.60;16.38;;;;;;;;;;5092878;28;20457;-52
2022/10/31 08:12:19;;;;;;;37.42;15.68;;;;;;;;;;5093370;28;20052;-51
2022/10/31 08:14:49;;;;;;;32.97;14.57;;;;;;;;;;5094863;28;20056;-51
2022/10/31 08:17:32;;;;;;;28.33;12.85;;;;;;;;;;5094725;28;20055;-53
2022/10/31 08:20:02;;;;;;;26.92;11.65;;;;;;;;;;5093553;28;20086;-51
2022/10/31 08:22:29;;;;;;;33.75;16.00;;;;;;;;;;5085569;28;20353;-53
2022/10/31 08:25:11;;;;;;;33.72;16.00;;;;;;;;;;5094330;28;20052;-53
2022/10/31 08:27:40;;;;;;;34.85;15.57;;;;;;;;;;5090810;28;20472;-55
2022/10/31 08:30:07;;;;;;;35.38;14.25;;;;;;;;;;5095490;28;20048;-53
2022/10/31 08:32:50;;;;;;;32.75;15.00;;;;;;;;;;5094747;28;20044;-52
2022/10/31 08:35:20;;;;;;;33.92;15.38;;;;;;;;;;5095200;28;20054;-53
2022/10/31 08:37:52;;;;;;;35.30;16.95;;;;;;;;;;5094349;28;20062;-51
2022/10/31 08:40:21;;;;;;;37.90;15.95;;;;;;;;;;5094863;28;20503;-51
2022/10/31 08:42:51;;;;;;;39.08;16.35;;;;;;;;;;5085241;28;20048;-52
2022/10/31 08:45:21;;;;;;;27.30;13.55;;;;;;;;;;5093509;28;20117;-51
2022/10/31 08:47:59;;;;;;;29.40;13.20;;;;;;;;;;5095400;28;20474;-51
2022/10/31 08:53:15;;;;;;;36.72;16.85;;;;;;;;;;5088522;28;20048;-50
2022/10/31 08:55:45;;;;;;;38.13;16.80;;;;;;;;;;5093894;28;20059;-50
2022/10/31 08:58:21;;;;;;;23.58;11.98;;;;;;;;;;5094412;28;20343;-51
2022/10/31 09:00:53;;;;;;;36.38;15.77;;;;;;;;;;5092160;28;20043;-50
2022/10/31 09:03:23;;;;;;;35.13;14.68;;;;;;;;;;5095015;28;20036;-51
2022/10/31 09:05:51;;;;;;;27.63;12.13;;;;;;;;;;5092607;28;20052;-51
2022/10/31 09:08:19;;;;;;;23.45;10.73;;;;;;;;;;5093403;28;20060;-53
2022/10/31 09:10:47;;;;;;;33.83;15.85;;;;;;;;;;5094102;28;20040;-51
2022/10/31 09:13:16;;;;;;;33.28;16.08;;;;;;;;;;5093198;28;20040;-51
2022/10/31 09:15:44;;;;;;;24.17;11.80;;;;;;;;;;5090215;28;20547;-52
2022/10/31 09:18:13;;;;;;;31.05;15.13;;;;;;;;;;5088795;28;20140;-55
2022/10/31 09:20:46;;;;;;;28.98;13.15;;;;;;;;;;5092600;28;20377;-54
2022/10/31 09:23:16;;;;;;;22.88;11.50;;;;;;;;;;5094086;28;20059;-54
2022/10/31 09:25:45;;;;;;;25.00;11.82;;;;;;;;;;5096267;28;20412;-54
2022/10/31 09:28:14;;;;;;;23.45;11.18;;;;;;;;;;5095608;28;20076;-50
2022/10/31 09:30:43;;;;;;;32.65;13.73;;;;;;;;;;5096457;28;20489;-53
2022/10/31 09:33:14;;;;;;;28.40;12.70;;;;;;;;;;5096971;28;20075;-52
2022/10/31 09:35:51;;;;;;;28.73;14.18;;;;;;;;;;5097399;28;20044;-54
2022/10/31 09:38:23;;;;;;;26.73;11.65;;;;;;;;;;5097919;28;20066;-55
2022/10/31 09:40:58;;;;;;;20.42;11.05;;;;;;;;;;5094150;28;20113;-55
2022/10/31 09:43:27;;;;;;;;;;;;;;;;;;5095456;28;20079;-51
2022/10/31 09:46:23;;;;;;;26.88;12.70;;;;;;;;;;5096378;28;19949;-52
2022/10/31 09:49:12;;;;;;;29.15;14.48;;;;;;;;;;5095106;28;20085;-54
2022/10/31 09:51:50;;;;;;;22.08;10.25;;;;;;;;;;5093096;28;20063;-55
2022/10/31 09:54:20;;;;;;;33.13;15.90;;;;;;;;;;5093392;28;20044;-55
2022/10/31 09:56:49;;;;;;;32.80;15.02;;;;;;;;;;5091376;28;20044;-55
2022/10/31 09:59:21;;;;;;;31.70;14.52;;;;;;;;;;5095166;28;20048;-52
2022/10/31 10:01:58;;;;;;;30.50;13.70;;;;;;;;;;5088398;28;20044;-53
2022/10/31 10:04:32;;;;;;;29.25;13.35;;;;;;;;;;5094311;28;20389;-54
2022/10/31 10:07:04;;;;;;;39.20;17.25;;;;;;;;;;5093866;28;20465;-54
2022/10/31 10:09:30;;;;;;;34.40;15.30;;;;;;;;;;5094386;28;20059;-53
2022/10/31 10:12:05;;;;;;;29.25;12.65;;;;;;;;;;5093676;28;20051;-50
2022/10/31 10:14:52;;;;;;;32.20;15.70;;;;;;;;;;5094559;28;20047;-50
2022/10/31 10:17:36;;;;;;;35.25;15.60;;;;;;;;;;5089103;28;20058;-50
2022/10/31 10:20:14;;;;;;;37.42;14.70;;;;;;;;;;5092500;28;20059;-54
2022/10/31 10:22:47;;;;;;;36.92;15.60;;;;;;;;;;5094268;28;20136;-54
2022/10/31 10:25:23;;;;;;;34.22;15.90;;;;;;;;;;5088069;28;20488;-52
2022/10/31 10:28:01;;;;;;;38.10;16.50;;;;;;;;;;5094072;28;20052;-53
2022/10/31 10:30:34;;;;;;;32.20;15.18;;;;;;;;;;5093493;28;20083;-55
2022/10/31 10:33:09;;;;;;;41.45;16.42;;;;;;;;;;5093685;28;20051;-55
2022/10/31 10:35:42;;;;;;;38.42;17.73;;;;;;;;;;5090391;28;20056;-55
2022/10/31 10:38:17;;;;;;;41.90;15.55;;;;;;;;;;5094251;28;20056;-54
2022/10/31 10:40:44;;;;;;;42.00;17.03;;;;;;;;;;5094247;28;20059;-53
2022/10/31 10:43:22;;;;;;;35.85;14.75;;;;;;;;;;5096452;28;20452;-52
2022/10/31 10:48:40;;;;;;;41.85;18.08;;;;;;;;;;5095528;28;20062;-51
2022/10/31 10:51:09;;;;;;;34.40;14.80;;;;;;;;;;5093164;28;20554;-54
2022/10/31 10:54:00;;;;;;;37.10;15.27;;;;;;;;;;5090541;28;20059;-50
2022/10/31 10:56:34;;;;;;;41.75;15.30;;;;;;;;;;5094931;28;20049;-51
2022/10/31 10:59:02;;;;;;;34.38;13.73;;;;;;;;;;5089411;28;20348;-53
2022/10/31 11:01:31;;;;;;;38.10;15.30;;;;;;;;;;5083810;28;20271;-57
2022/10/31 11:03:58;;;;;;;36.50;13.52;;;;;;;;;;5092859;28;20389;-52
2022/10/31 11:06:26;;;;;;;33.17;13.15;;;;;;;;;;5089547;28;20074;-52
2022/10/31 11:09:12;;;;;;;38.20;14.93;;;;;;;;;;5089042;28;20059;-51
2022/10/31 11:11:42;;;;;;;38.17;17.08;;;;;;;;;;5092895;28;20056;-52
2022/10/31 11:14:13;;;;;;;35.35;13.55;;;;;;;;;;5089076;28;20063;-49
2022/10/31 11:16:45;;;;;;;28.65;12.23;;;;;;;;;;5095814;28;20048;-51
2022/10/31 11:19:17;;;;;;;25.50;11.05;;;;;;;;;;5094686;28;20048;-51
2022/10/31 11:21:45;;;;;;;37.83;15.43;;;;;;;;;;5088108;28;20073;-52
2022/10/31 11:24:22;;;;;;;29.00;13.32;;;;;;;;;;5086519;28;20052;-52
2022/10/31 11:26:49;;;;;;;33.55;14.02;;;;;;;;;;5092428;28;20044;-51
2022/10/31 11:29:18;;;;;;;33.50;14.77;;;;;;;;;;5093127;28;20051;-53
2022/10/31 11:31:48;;;;;;;37.30;14.90;;;;;;;;;;5094752;28;20067;-52
2022/10/31 11:34:23;;;;;;;31.33;12.85;;;;;;;;;;5094794;28;20044;-54
2022/10/31 11:36:53;;;;;;;34.40;13.40;;;;;;;;;;5093567;28;20084;-52
2022/10/31 11:39:24;;;;;;;27.15;10.77;;;;;;;;;;5087871;28;20044;-51
2022/10/31 11:41:52;;;;;;;26.20;11.18;;;;;;;;;;5092539;28;20059;-52
2022/10/31 11:44:21;;;;;;;25.52;11.73;;;;;;;;;;5092756;28;20067;-52
2022/10/31 11:46:52;;;;;;;30.50;13.38;;;;;;;;;;5092423;28;20055;-54
2022/10/31 11:49:29;;;;;;;23.67;10.20;;;;;;;;;;5094995;28;20358;-56
2022/10/31 11:51:58;;;;;;;26.80;12.50;;;;;;;;;;5090269;28;20052;-55
2022/10/31 11:54:42;;;;;;;25.27;12.45;;;;;;;;;;5091495;28;20043;-53
2022/10/31 11:57:27;;;;;;;23.15;11.25;;;;;;;;;;5086142;28;20628;-51
2022/10/31 11:59:54;;;;;;;24.60;12.85;;;;;;;;;;5097676;28;20048;-55
2022/10/31 12:02:22;;;;;;;23.08;11.98;;;;;;;;;;5096782;28;20380;-52
2022/10/31 12:04:51;;;;;;;19.13;10.65;;;;;;;;;;5089146;28;20055;-52
2022/10/31 12:07:19;;;;;;;19.92;10.63;;;;;;;;;;5095149;28;20059;-51
2022/10/31 12:09:55;;;;;;;20.23;10.60;;;;;;;;;;5093588;28;20108;-53
2022/10/31 12:12:40;;;;;;;24.13;12.80;;;;;;;;;;5082420;28;20461;-51
2022/10/31 12:15:16;;;;;;;24.98;12.88;;;;;;;;;;5083570;28;20570;-52
2022/10/31 12:17:47;;;;;;;26.35;13.20;;;;;;;;;;5092164;28;20407;-52
2022/10/31 12:20:24;;;;;;;23.85;11.98;;;;;;;;;;5092145;28;20067;-55
2022/10/31 12:22:57;;;;;;;22.67;11.75;;;;;;;;;;5092401;28;20062;-54
2022/10/31 12:25:44;;;;;;;20.13;11.43;;;;;;;;;;5090533;28;20048;-52
2022/10/31 12:28:32;;;;;;;16.55;10.23;;;;;;;;;;5090773;28;20051;-55
2022/10/31 12:31:09;;;;;;;20.85;10.00;;;;;;;;;;5090208;28;20040;-53
2022/10/31 12:33:52;;;;;;;19.38;9.23;;;;;;;;;;5092074;28;20055;-55
2022/10/31 12:36:45;;;;;;;19.70;10.38;;;;;;;;;;5091654;28;20047;-53
2022/10/31 12:39:21;;;;;;;20.30;10.90;;;;;;;;;;5085754;28;20051;-52
2022/10/31 12:42:05;;;;;;;14.32;8.00;;;;;;;;;;5090247;28;20070;-54
2022/10/31 12:44:44;;;;;;;17.17;8.93;;;;;;;;;;5092271;28;20060;-52
2022/10/31 12:47:24;;;;;;;23.98;12.65;;;;;;;;;;5089733;28;20056;-51
2022/10/31 12:49:56;;;;;;;20.63;10.30;;;;;;;;;;5080278;28;20472;-52
2022/10/31 12:52:38;;;;;;;22.80;11.73;;;;;;;;;;5092486;28;20127;-53
2022/10/31 12:55:15;;;;;;;22.25;11.85;;;;;;;;;;5094601;28;20051;-52
2022/10/31 12:57:52;;;;;;;24.08;12.30;;;;;;;;;;5094804;28;20054;-53
2022/10/31 13:00:22;;;;;;;21.17;9.85;;;;;;;;;;5090614;28;20083;-52
2022/10/31 13:02:52;;;;;;;22.17;10.93;;;;;;;;;;5096343;28;20070;-54
2022/10/31 13:05:25;;;;;;;20.27;10.07;;;;;;;;;;5090443;28;20044;-51
2022/10/31 13:07:58;;;;;;;23.70;11.23;;;;;;;;;;5079398;28;20044;-51
2022/10/31 13:10:35;;;;;;;16.92;8.48;;;;;;;;;;5090421;28;20044;-53
2022/10/31 13:13:08;;;;;;;15.65;8.15;;;;;;;;;;5095699;28;20043;-51
2022/10/31 13:15:48;;;;;;;14.93;7.63;;;;;;;;;;5095521;28;20044;-52
2022/10/31 13:18:22;;;;;;;21.40;11.13;;;;;;;;;;5095171;28;20052;-51
2022/10/31 13:20:51;;;;;;;24.90;13.70;;;;;;;;;;5099266;28;20052;-54
2022/10/31 13:23:30;;;;;;;17.70;9.90;;;;;;;;;;5095540;28;20044;-51
2022/10/31 13:25:59;;;;;;;30.65;11.45;;;;;;;;;;5087242;28;20052;-51
2022/10/31 13:28:34;;;;;;;25.52;12.43;;;;;;;;;;5094342;28;20044;-53
2022/10/31 13:31:10;;;;;;;20.35;9.70;;;;;;;;;;5091527;28;20055;-54
2022/10/31 13:33:40;;;;;;;18.70;10.23;;;;;;;;;;5095004;28;20102;-54
2022/10/31 13:36:17;;;;;;;28.85;13.38;;;;;;;;;;5095147;28;20427;-51
2022/10/31 13:38:49;;;;;;;24.83;11.57;;;;;;;;;;5090621;28;20454;-51
2022/10/31 13:41:23;;;;;;;22.48;10.65;;;;;;;;;;5095419;28;20066;-53
2022/10/31 13:44:07;;;;;;;29.85;12.77;;;;;;;;;;5090823;28;20064;-54
2022/10/31 13:46:38;;;;;;;23.35;10.63;;;;;;;;;;5089001;28;20492;-52
2022/10/31 13:49:22;;;;;;;17.95;9.40;;;;;;;;;;5076388;28;20048;-52
2022/10/31 13:51:52;;;;;;;20.63;10.25;;;;;;;;;;5085441;28;20063;-51
2022/10/31 13:54:24;;;;;;;21.90;10.65;;;;;;;;;;5093865;28;20044;-54
2022/10/31 13:56:52;;;;;;;25.70;11.50;;;;;;;;;;5083972;28;20052;-52
2022/10/31 13:59:38;;;;;;;20.55;9.23;;;;;;;;;;5089622;28;20044;-51
2022/10/31 14:02:14;;;;;;;28.02;12.18;;;;;;;;;;5089285;28;20051;-51
2022/10/31 14:04:45;;;;;;;17.95;8.88;;;;;;;;;;5076350;28;20091;-52
2022/10/31 14:07:15;;;;;;;20.00;10.18;;;;;;;;;;5089692;28;20059;-52
2022/10/31 14:09:54;;;;;;;15.50;8.98;;;;;;;;;;5093425;28;20158;-51
2022/10/31 14:12:27;;;;;;;19.35;9.68;;;;;;;;;;5091987;28;20044;-52
2022/10/31 14:14:59;;;;;;;15.13;8.35;;;;;;;;;;5090485;28;20052;-53
2022/10/31 14:17:27;;;;;;;19.80;9.23;;;;;;;;;;5087997;28;20507;-55
2022/10/31 14:20:01;;;;;;;15.13;7.63;;;;;;;;;;5087515;28;20044;-51
2022/10/31 14:22:31;;;;;;;20.77;9.95;;;;;;;;;;5092365;28;20510;-55
2022/10/31 14:25:00;;;;;;;26.75;13.63;;;;;;;;;;5085496;28;20093;-52
2022/10/31 14:27:44;;;;;;;17.63;9.43;;;;;;;;;;5093286;28;20062;-54
2022/10/31 14:30:22;;;;;;;20.83;9.70;;;;;;;;;;5093010;28;20121;-54
2022/10/31 14:32:56;;;;;;;17.25;8.82;;;;;;;;;;5093013;28;20043;-54
2022/10/31 14:35:26;;;;;;;15.18;8.23;;;;;;;;;;5092458;28;20109;-51
2022/10/31 14:38:17;;;;;;;16.50;8.40;;;;;;;;;;5091472;28;20091;-54
2022/10/31 14:40:52;;;;;;;18.13;8.10;;;;;;;;;;5089314;28;20154;-55
2022/10/31 14:43:18;;;;;;;;;;;;;;;;;;5083852;28;20050;-52
2022/10/31 14:45:51;;;;;;;18.92;7.75;;;;;;;;;;5091162;28;19924;-54
2022/10/31 14:48:32;;;;;;;16.75;8.65;;;;;;;;;;5091515;28;20044;-54
2022/10/31 14:51:01;;;;;;;14.07;8.23;;;;;;;;;;5090063;28;20052;-53
2022/10/31 14:53:29;;;;;;;21.42;10.35;;;;;;;;;;5086222;28;20052;-53
2022/10/31 14:55:58;;;;;;;16.38;8.23;;;;;;;;;;5093679;28;20465;-54
2022/10/31 14:58:31;;;;;;;18.73;8.35;;;;;;;;;;5087640;28;20051;-55
2022/10/31 15:01:01;;;;;;;19.55;8.93;;;;;;;;;;5093033;28;20052;-54
2022/10/31 15:03:33;;;;;;;12.88;7.50;;;;;;;;;;5093444;28;20365;-55